sensor_id;sensor_type;location;lat;lon;timestamp;P1;durP1;ratioP1;P2;durP2;ratioP2
25331;SDS011;13284;52.748;13.452;2022-12-07T00:01:36;9.17;;;5.47;;
25331;SDS011;13284;52.748;13.452;2022-12-07T00:04:03;8.93;;;5.10;;
25331;SDS011;13284;52.748;13.452;2022-12-07T00:06:36;9.13;;;5.07;;
25331;SDS011;13284;52.748;13.452;2022-12-07T00:09:04;9.03;;;5.90;;
25331;SDS011;13284;52.748;13.452;2022-12-07T00:11:31;11.23;;;6.47;;
25331;SDS011;13284;52.748;13.452;2022-12-07T00:13:58;10.73;;;6.20;;
25331;SDS011;13284;52.748;13.452;2022-12-07T00:16:27;10.53;;;5.77;;
25331;SDS011;13284;52.748;13.452;2022-12-07T00:18:55;8.73;;;5.00;;
25331;SDS011;13284;52.748;13.452;2022-12-07T00:21:23;10.40;;;5.43;;
25331;SDS011;13284;52.748;13.452;2022-12-07T00:23:51;9.63;;;6.20;;
25331;SDS011;13284;52.748;13.452;2022-12-07T00:26:19;8.60;;;5.87;;
25331;SDS011;13284;52.748;13.452;2022-12-07T00:28:46;10.27;;;6.00;;
25331;SDS011;13284;52.748;13.452;2022-12-07T00:31:12;9.03;;;5.13;;
25331;SDS011;13284;52.748;13.452;2022-12-07T00:33:39;10.63;;;6.50;;
25331;SDS011;13284;52.748;13.452;2022-12-07T00:36:06;9.30;;;6.00;;
25331;SDS011;13284;52.748;13.452;2022-12-07T00:38:34;11.53;;;6.07;;
25331;SDS011;13284;52.748;13.452;2022-12-07T00:41:02;11.17;;;6.13;;
25331;SDS011;13284;52.748;13.452;2022-12-07T00:43:29;10.50;;;5.47;;
25331;SDS011;13284;52.748;13.452;2022-12-07T00:45:55;7.23;;;4.97;;
25331;SDS011;13284;52.748;13.452;2022-12-07T00:48:21;12.07;;;5.70;;
25331;SDS011;13284;52.748;13.452;2022-12-07T00:50:47;7.50;;;5.13;;
25331;SDS011;13284;52.748;13.452;2022-12-07T00:53:13;10.53;;;5.80;;
25331;SDS011;13284;52.748;13.452;2022-12-07T00:55:39;9.17;;;5.20;;
25331;SDS011;13284;52.748;13.452;2022-12-07T00:58:04;11.40;;;6.30;;
25331;SDS011;13284;52.748;13.452;2022-12-07T01:00:30;11.30;;;5.90;;
25331;SDS011;13284;52.748;13.452;2022-12-07T01:02:56;9.70;;;5.37;;
25331;SDS011;13284;52.748;13.452;2022-12-07T01:05:22;9.40;;;5.70;;
25331;SDS011;13284;52.748;13.452;2022-12-07T01:07:47;8.13;;;5.00;;
25331;SDS011;13284;52.748;13.452;2022-12-07T01:10:13;11.00;;;5.37;;
25331;SDS011;13284;52.748;13.452;2022-12-07T01:12:39;10.87;;;5.93;;
25331;SDS011;13284;52.748;13.452;2022-12-07T01:15:06;8.90;;;5.30;;
25331;SDS011;13284;52.748;13.452;2022-12-07T01:17:32;10.30;;;5.63;;
25331;SDS011;13284;52.748;13.452;2022-12-07T01:19:59;7.40;;;4.57;;
25331;SDS011;13284;52.748;13.452;2022-12-07T01:22:25;6.53;;;4.87;;
25331;SDS011;13284;52.748;13.452;2022-12-07T01:24:51;9.80;;;4.73;;
25331;SDS011;13284;52.748;13.452;2022-12-07T01:27:16;8.90;;;5.40;;
25331;SDS011;13284;52.748;13.452;2022-12-07T01:29:42;8.40;;;4.80;;
25331;SDS011;13284;52.748;13.452;2022-12-07T01:32:07;8.30;;;4.47;;
25331;SDS011;13284;52.748;13.452;2022-12-07T01:34:33;10.23;;;5.33;;
25331;SDS011;13284;52.748;13.452;2022-12-07T01:36:58;8.83;;;4.90;;
25331;SDS011;13284;52.748;13.452;2022-12-07T01:39:24;9.30;;;5.23;;
25331;SDS011;13284;52.748;13.452;2022-12-07T01:41:49;7.90;;;4.60;;
25331;SDS011;13284;52.748;13.452;2022-12-07T01:44:17;9.03;;;5.43;;
25331;SDS011;13284;52.748;13.452;2022-12-07T01:46:53;10.33;;;5.80;;
25331;SDS011;13284;52.748;13.452;2022-12-07T01:54:40;8.60;;;5.60;;
25331;SDS011;13284;52.748;13.452;2022-12-07T01:57:07;10.27;;;5.50;;
25331;SDS011;13284;52.748;13.452;2022-12-07T01:59:34;11.43;;;6.23;;
25331;SDS011;13284;52.748;13.452;2022-12-07T02:02:00;7.30;;;5.00;;
25331;SDS011;13284;52.748;13.452;2022-12-07T02:04:29;8.70;;;4.60;;
25331;SDS011;13284;52.748;13.452;2022-12-07T02:06:55;9.07;;;4.67;;
25331;SDS011;13284;52.748;13.452;2022-12-07T02:09:22;11.77;;;5.80;;
25331;SDS011;13284;52.748;13.452;2022-12-07T02:11:48;8.93;;;5.57;;
25331;SDS011;13284;52.748;13.452;2022-12-07T02:14:14;9.60;;;4.93;;
25331;SDS011;13284;52.748;13.452;2022-12-07T02:19:32;8.37;;;4.97;;
25331;SDS011;13284;52.748;13.452;2022-12-07T02:22:46;7.40;;;4.70;;
25331;SDS011;13284;52.748;13.452;2022-12-07T02:28:03;6.03;;;4.13;;
25331;SDS011;13284;52.748;13.452;2022-12-07T02:30:48;6.80;;;4.20;;
25331;SDS011;13284;52.748;13.452;2022-12-07T02:33:16;7.77;;;5.30;;
25331;SDS011;13284;52.748;13.452;2022-12-07T02:35:53;8.60;;;4.50;;
25331;SDS011;13284;52.748;13.452;2022-12-07T02:38:26;8.33;;;4.40;;
25331;SDS011;13284;52.748;13.452;2022-12-07T02:41:05;7.13;;;4.13;;
25331;SDS011;13284;52.748;13.452;2022-12-07T02:43:42;7.47;;;4.20;;
25331;SDS011;13284;52.748;13.452;2022-12-07T02:46:13;6.70;;;4.23;;
25331;SDS011;13284;52.748;13.452;2022-12-07T02:51:54;8.67;;;5.23;;
25331;SDS011;13284;52.748;13.452;2022-12-07T02:54:20;7.47;;;4.87;;
25331;SDS011;13284;52.748;13.452;2022-12-07T02:56:51;9.10;;;4.67;;
25331;SDS011;13284;52.748;13.452;2022-12-07T02:59:48;6.87;;;4.27;;
25331;SDS011;13284;52.748;13.452;2022-12-07T03:05:13;6.20;;;4.43;;
25331;SDS011;13284;52.748;13.452;2022-12-07T03:10:30;8.40;;;4.67;;
25331;SDS011;13284;52.748;13.452;2022-12-07T03:13:28;8.27;;;3.80;;
25331;SDS011;13284;52.748;13.452;2022-12-07T03:16:05;6.53;;;4.40;;
25331;SDS011;13284;52.748;13.452;2022-12-07T03:18:41;5.53;;;4.07;;
25331;SDS011;13284;52.748;13.452;2022-12-07T03:21:31;7.90;;;4.40;;
25331;SDS011;13284;52.748;13.452;2022-12-07T03:24:04;4.70;;;4.00;;
25331;SDS011;13284;52.748;13.452;2022-12-07T03:26:40;6.87;;;4.23;;
25331;SDS011;13284;52.748;13.452;2022-12-07T03:29:11;6.60;;;3.50;;
25331;SDS011;13284;52.748;13.452;2022-12-07T03:31:40;8.00;;;3.93;;
25331;SDS011;13284;52.748;13.452;2022-12-07T03:36:50;6.50;;;4.70;;
25331;SDS011;13284;52.748;13.452;2022-12-07T03:39:27;6.93;;;3.40;;
25331;SDS011;13284;52.748;13.452;2022-12-07T03:42:00;7.70;;;4.30;;
25331;SDS011;13284;52.748;13.452;2022-12-07T03:44:29;7.77;;;4.47;;
25331;SDS011;13284;52.748;13.452;2022-12-07T03:47:01;6.20;;;4.03;;
25331;SDS011;13284;52.748;13.452;2022-12-07T03:49:41;6.83;;;4.73;;
25331;SDS011;13284;52.748;13.452;2022-12-07T03:53:14;6.83;;;4.97;;
25331;SDS011;13284;52.748;13.452;2022-12-07T03:55:29;6.57;;;3.60;;
25331;SDS011;13284;52.748;13.452;2022-12-07T03:58:02;6.40;;;4.57;;
25331;SDS011;13284;52.748;13.452;2022-12-07T04:00:34;6.07;;;4.17;;
25331;SDS011;13284;52.748;13.452;2022-12-07T04:03:00;8.63;;;5.17;;
25331;SDS011;13284;52.748;13.452;2022-12-07T04:05:26;8.30;;;4.07;;
25331;SDS011;13284;52.748;13.452;2022-12-07T04:07:52;7.93;;;4.23;;
25331;SDS011;13284;52.748;13.452;2022-12-07T04:10:18;8.93;;;4.50;;
25331;SDS011;13284;52.748;13.452;2022-12-07T04:12:43;8.87;;;5.27;;
25331;SDS011;13284;52.748;13.452;2022-12-07T04:15:09;8.27;;;4.77;;
25331;SDS011;13284;52.748;13.452;2022-12-07T04:17:35;8.27;;;5.50;;
25331;SDS011;13284;52.748;13.452;2022-12-07T04:20:00;10.80;;;6.13;;
25331;SDS011;13284;52.748;13.452;2022-12-07T04:22:26;8.57;;;5.20;;
25331;SDS011;13284;52.748;13.452;2022-12-07T04:24:51;10.30;;;5.00;;
25331;SDS011;13284;52.748;13.452;2022-12-07T04:27:17;9.57;;;5.70;;
25331;SDS011;13284;52.748;13.452;2022-12-07T04:29:42;11.23;;;6.40;;
25331;SDS011;13284;52.748;13.452;2022-12-07T04:32:08;10.00;;;6.27;;
25331;SDS011;13284;52.748;13.452;2022-12-07T04:34:33;14.20;;;6.10;;
25331;SDS011;13284;52.748;13.452;2022-12-07T04:36:59;13.30;;;5.30;;
25331;SDS011;13284;52.748;13.452;2022-12-07T04:39:26;11.27;;;6.20;;
25331;SDS011;13284;52.748;13.452;2022-12-07T04:41:53;7.93;;;5.67;;
25331;SDS011;13284;52.748;13.452;2022-12-07T04:44:20;16.30;;;7.20;;
25331;SDS011;13284;52.748;13.452;2022-12-07T04:46:46;11.83;;;7.40;;
25331;SDS011;13284;52.748;13.452;2022-12-07T04:49:13;11.87;;;6.80;;
25331;SDS011;13284;52.748;13.452;2022-12-07T04:51:39;10.40;;;6.33;;
25331;SDS011;13284;52.748;13.452;2022-12-07T04:54:05;10.97;;;6.17;;
25331;SDS011;13284;52.748;13.452;2022-12-07T04:56:31;12.37;;;7.73;;
25331;SDS011;13284;52.748;13.452;2022-12-07T04:58:57;12.40;;;6.90;;
25331;SDS011;13284;52.748;13.452;2022-12-07T05:01:23;12.80;;;7.43;;
25331;SDS011;13284;52.748;13.452;2022-12-07T05:03:49;12.10;;;6.47;;
25331;SDS011;13284;52.748;13.452;2022-12-07T05:06:15;19.13;;;7.40;;
25331;SDS011;13284;52.748;13.452;2022-12-07T05:08:41;15.87;;;7.40;;
25331;SDS011;13284;52.748;13.452;2022-12-07T05:11:08;17.30;;;8.20;;
25331;SDS011;13284;52.748;13.452;2022-12-07T05:13:35;26.33;;;8.70;;
25331;SDS011;13284;52.748;13.452;2022-12-07T05:16:01;17.10;;;8.13;;
25331;SDS011;13284;52.748;13.452;2022-12-07T05:18:27;16.47;;;8.90;;
25331;SDS011;13284;52.748;13.452;2022-12-07T05:20:52;17.93;;;10.53;;
25331;SDS011;13284;52.748;13.452;2022-12-07T05:23:18;17.60;;;8.67;;
25331;SDS011;13284;52.748;13.452;2022-12-07T05:25:44;18.27;;;8.30;;
25331;SDS011;13284;52.748;13.452;2022-12-07T05:28:10;14.77;;;8.43;;
25331;SDS011;13284;52.748;13.452;2022-12-07T05:30:35;17.23;;;8.07;;
25331;SDS011;13284;52.748;13.452;2022-12-07T05:33:01;15.67;;;10.00;;
25331;SDS011;13284;52.748;13.452;2022-12-07T05:35:27;16.30;;;9.50;;
25331;SDS011;13284;52.748;13.452;2022-12-07T05:37:54;15.80;;;8.70;;
25331;SDS011;13284;52.748;13.452;2022-12-07T05:40:20;18.07;;;9.53;;
25331;SDS011;13284;52.748;13.452;2022-12-07T05:42:46;19.23;;;9.57;;
25331;SDS011;13284;52.748;13.452;2022-12-07T05:45:11;16.53;;;9.23;;
25331;SDS011;13284;52.748;13.452;2022-12-07T05:47:37;20.23;;;10.80;;
25331;SDS011;13284;52.748;13.452;2022-12-07T05:50:03;17.30;;;8.90;;
25331;SDS011;13284;52.748;13.452;2022-12-07T05:52:29;17.90;;;9.77;;
25331;SDS011;13284;52.748;13.452;2022-12-07T05:54:55;16.87;;;9.57;;
25331;SDS011;13284;52.748;13.452;2022-12-07T05:57:20;17.17;;;9.50;;
25331;SDS011;13284;52.748;13.452;2022-12-07T05:59:46;22.10;;;10.53;;
25331;SDS011;13284;52.748;13.452;2022-12-07T06:02:12;16.50;;;8.17;;
25331;SDS011;13284;52.748;13.452;2022-12-07T06:04:40;13.80;;;8.93;;
25331;SDS011;13284;52.748;13.452;2022-12-07T06:07:08;17.97;;;8.67;;
25331;SDS011;13284;52.748;13.452;2022-12-07T06:09:34;19.10;;;8.40;;
25331;SDS011;13284;52.748;13.452;2022-12-07T06:12:00;18.87;;;10.57;;
25331;SDS011;13284;52.748;13.452;2022-12-07T06:14:45;15.67;;;8.20;;
25331;SDS011;13284;52.748;13.452;2022-12-07T06:17:11;14.83;;;7.67;;
25331;SDS011;13284;52.748;13.452;2022-12-07T06:19:38;13.27;;;8.20;;
25331;SDS011;13284;52.748;13.452;2022-12-07T06:22:04;13.37;;;7.33;;
25331;SDS011;13284;52.748;13.452;2022-12-07T06:24:30;13.23;;;7.97;;
25331;SDS011;13284;52.748;13.452;2022-12-07T06:26:57;10.30;;;5.97;;
25331;SDS011;13284;52.748;13.452;2022-12-07T06:29:23;10.73;;;5.93;;
25331;SDS011;13284;52.748;13.452;2022-12-07T06:31:48;12.13;;;7.33;;
25331;SDS011;13284;52.748;13.452;2022-12-07T06:34:15;10.00;;;6.20;;
25331;SDS011;13284;52.748;13.452;2022-12-07T06:36:42;12.60;;;7.30;;
25331;SDS011;13284;52.748;13.452;2022-12-07T06:39:08;10.40;;;5.60;;
25331;SDS011;13284;52.748;13.452;2022-12-07T06:41:34;14.30;;;7.90;;
25331;SDS011;13284;52.748;13.452;2022-12-07T06:44:01;10.50;;;7.07;;
25331;SDS011;13284;52.748;13.452;2022-12-07T06:46:26;10.93;;;6.53;;
25331;SDS011;13284;52.748;13.452;2022-12-07T06:48:52;11.60;;;6.80;;
25331;SDS011;13284;52.748;13.452;2022-12-07T06:51:18;12.10;;;6.00;;
25331;SDS011;13284;52.748;13.452;2022-12-07T06:53:44;10.57;;;7.10;;
25331;SDS011;13284;52.748;13.452;2022-12-07T06:56:09;13.40;;;7.70;;
25331;SDS011;13284;52.748;13.452;2022-12-07T06:58:35;10.13;;;6.40;;
25331;SDS011;13284;52.748;13.452;2022-12-07T07:01:01;12.90;;;6.70;;
25331;SDS011;13284;52.748;13.452;2022-12-07T07:03:26;13.67;;;7.00;;
25331;SDS011;13284;52.748;13.452;2022-12-07T07:05:52;10.00;;;7.33;;
25331;SDS011;13284;52.748;13.452;2022-12-07T07:08:17;9.77;;;6.00;;
25331;SDS011;13284;52.748;13.452;2022-12-07T07:10:43;12.77;;;6.93;;
25331;SDS011;13284;52.748;13.452;2022-12-07T07:13:08;10.67;;;8.53;;
25331;SDS011;13284;52.748;13.452;2022-12-07T07:15:34;11.50;;;7.20;;
25331;SDS011;13284;52.748;13.452;2022-12-07T07:18:02;12.20;;;6.10;;
25331;SDS011;13284;52.748;13.452;2022-12-07T07:20:28;11.30;;;6.67;;
25331;SDS011;13284;52.748;13.452;2022-12-07T07:22:54;8.80;;;5.80;;
25331;SDS011;13284;52.748;13.452;2022-12-07T07:25:20;10.77;;;6.43;;
25331;SDS011;13284;52.748;13.452;2022-12-07T07:27:46;10.73;;;7.70;;
25331;SDS011;13284;52.748;13.452;2022-12-07T07:30:12;12.30;;;6.57;;
25331;SDS011;13284;52.748;13.452;2022-12-07T07:32:37;10.63;;;7.07;;
25331;SDS011;13284;52.748;13.452;2022-12-07T07:35:03;13.20;;;6.00;;
25331;SDS011;13284;52.748;13.452;2022-12-07T07:37:29;11.57;;;6.60;;
25331;SDS011;13284;52.748;13.452;2022-12-07T07:39:54;13.27;;;6.70;;
25331;SDS011;13284;52.748;13.452;2022-12-07T07:42:20;9.90;;;6.83;;
25331;SDS011;13284;52.748;13.452;2022-12-07T07:44:45;12.20;;;5.90;;
25331;SDS011;13284;52.748;13.452;2022-12-07T07:47:11;9.70;;;5.50;;
25331;SDS011;13284;52.748;13.452;2022-12-07T07:49:37;9.67;;;5.40;;
25331;SDS011;13284;52.748;13.452;2022-12-07T07:52:02;6.93;;;4.50;;
25331;SDS011;13284;52.748;13.452;2022-12-07T07:54:29;8.60;;;4.93;;
25331;SDS011;13284;52.748;13.452;2022-12-07T07:56:55;8.00;;;4.00;;
25331;SDS011;13284;52.748;13.452;2022-12-07T07:59:20;6.20;;;4.53;;
25331;SDS011;13284;52.748;13.452;2022-12-07T08:01:46;6.30;;;4.60;;
25331;SDS011;13284;52.748;13.452;2022-12-07T08:04:11;6.13;;;4.17;;
25331;SDS011;13284;52.748;13.452;2022-12-07T08:06:37;8.47;;;5.87;;
25331;SDS011;13284;52.748;13.452;2022-12-07T08:09:02;9.13;;;4.30;;
25331;SDS011;13284;52.748;13.452;2022-12-07T08:11:30;4.43;;;3.40;;
25331;SDS011;13284;52.748;13.452;2022-12-07T08:13:55;6.03;;;3.60;;
25331;SDS011;13284;52.748;13.452;2022-12-07T08:16:21;6.53;;;4.17;;
25331;SDS011;13284;52.748;13.452;2022-12-07T08:18:46;6.73;;;4.50;;
25331;SDS011;13284;52.748;13.452;2022-12-07T08:21:13;3.77;;;3.37;;
25331;SDS011;13284;52.748;13.452;2022-12-07T08:23:40;3.83;;;2.93;;
25331;SDS011;13284;52.748;13.452;2022-12-07T08:26:07;6.73;;;4.10;;
25331;SDS011;13284;52.748;13.452;2022-12-07T08:28:35;6.10;;;3.47;;
25331;SDS011;13284;52.748;13.452;2022-12-07T08:31:05;6.37;;;3.33;;
25331;SDS011;13284;52.748;13.452;2022-12-07T08:33:39;4.70;;;3.80;;
25331;SDS011;13284;52.748;13.452;2022-12-07T08:36:06;5.13;;;3.50;;
25331;SDS011;13284;52.748;13.452;2022-12-07T08:38:34;6.17;;;4.17;;
25331;SDS011;13284;52.748;13.452;2022-12-07T08:41:00;5.03;;;3.33;;
25331;SDS011;13284;52.748;13.452;2022-12-07T08:43:26;4.30;;;3.27;;
25331;SDS011;13284;52.748;13.452;2022-12-07T08:49:11;6.17;;;3.40;;
25331;SDS011;13284;52.748;13.452;2022-12-07T08:51:47;7.03;;;3.30;;
25331;SDS011;13284;52.748;13.452;2022-12-07T08:54:14;4.80;;;3.20;;
25331;SDS011;13284;52.748;13.452;2022-12-07T08:56:43;6.57;;;3.93;;
25331;SDS011;13284;52.748;13.452;2022-12-07T08:59:12;4.40;;;3.77;;
25331;SDS011;13284;52.748;13.452;2022-12-07T09:01:39;4.27;;;3.33;;
25331;SDS011;13284;52.748;13.452;2022-12-07T09:04:04;4.03;;;3.47;;
25331;SDS011;13284;52.748;13.452;2022-12-07T09:06:30;5.40;;;3.80;;
25331;SDS011;13284;52.748;13.452;2022-12-07T09:08:57;4.33;;;3.30;;
25331;SDS011;13284;52.748;13.452;2022-12-07T09:11:25;3.50;;;2.90;;
25331;SDS011;13284;52.748;13.452;2022-12-07T09:13:50;6.40;;;3.50;;
25331;SDS011;13284;52.748;13.452;2022-12-07T09:16:16;4.80;;;3.50;;
25331;SDS011;13284;52.748;13.452;2022-12-07T09:18:42;4.93;;;2.90;;
25331;SDS011;13284;52.748;13.452;2022-12-07T09:21:07;4.73;;;3.33;;
25331;SDS011;13284;52.748;13.452;2022-12-07T09:23:33;4.30;;;2.80;;
25331;SDS011;13284;52.748;13.452;2022-12-07T09:26:00;5.47;;;3.00;;
25331;SDS011;13284;52.748;13.452;2022-12-07T09:28:26;3.50;;;3.07;;
25331;SDS011;13284;52.748;13.452;2022-12-07T09:30:51;5.83;;;2.47;;
25331;SDS011;13284;52.748;13.452;2022-12-07T09:33:17;4.40;;;3.13;;
25331;SDS011;13284;52.748;13.452;2022-12-07T09:35:49;3.87;;;2.40;;
25331;SDS011;13284;52.748;13.452;2022-12-07T09:38:15;3.50;;;2.30;;
25331;SDS011;13284;52.748;13.452;2022-12-07T09:40:42;2.47;;;2.27;;
25331;SDS011;13284;52.748;13.452;2022-12-07T09:43:12;2.60;;;2.40;;
25331;SDS011;13284;52.748;13.452;2022-12-07T09:45:40;3.53;;;2.90;;
25331;SDS011;13284;52.748;13.452;2022-12-07T09:48:10;4.07;;;2.63;;
25331;SDS011;13284;52.748;13.452;2022-12-07T09:50:44;2.23;;;1.50;;
25331;SDS011;13284;52.748;13.452;2022-12-07T09:53:24;3.87;;;2.90;;
25331;SDS011;13284;52.748;13.452;2022-12-07T09:55:53;3.10;;;2.20;;
25331;SDS011;13284;52.748;13.452;2022-12-07T09:58:20;3.17;;;2.07;;
25331;SDS011;13284;52.748;13.452;2022-12-07T10:00:57;3.20;;;2.10;;
25331;SDS011;13284;52.748;13.452;2022-12-07T10:03:36;3.73;;;2.60;;
25331;SDS011;13284;52.748;13.452;2022-12-07T10:06:04;2.00;;;1.80;;
25331;SDS011;13284;52.748;13.452;2022-12-07T10:08:30;2.57;;;2.37;;
25331;SDS011;13284;52.748;13.452;2022-12-07T10:10:56;2.60;;;2.40;;
25331;SDS011;13284;52.748;13.452;2022-12-07T10:13:33;2.40;;;1.90;;
25331;SDS011;13284;52.748;13.452;2022-12-07T10:16:00;2.90;;;1.80;;
25331;SDS011;13284;52.748;13.452;2022-12-07T10:18:28;2.30;;;1.80;;
25331;SDS011;13284;52.748;13.452;2022-12-07T10:21:04;1.80;;;1.70;;
25331;SDS011;13284;52.748;13.452;2022-12-07T10:23:32;2.30;;;1.67;;
25331;SDS011;13284;52.748;13.452;2022-12-07T10:25:58;2.63;;;2.37;;
25331;SDS011;13284;52.748;13.452;2022-12-07T10:28:27;2.80;;;2.20;;
25331;SDS011;13284;52.748;13.452;2022-12-07T10:31:01;2.03;;;1.83;;
25331;SDS011;13284;52.748;13.452;2022-12-07T10:33:56;2.00;;;1.90;;
25331;SDS011;13284;52.748;13.452;2022-12-07T10:36:30;1.60;;;1.43;;
25331;SDS011;13284;52.748;13.452;2022-12-07T10:39:11;1.30;;;1.13;;
25331;SDS011;13284;52.748;13.452;2022-12-07T10:44:25;1.57;;;1.43;;
25331;SDS011;13284;52.748;13.452;2022-12-07T10:50:08;2.20;;;1.47;;
25331;SDS011;13284;52.748;13.452;2022-12-07T11:01:13;1.43;;;1.30;;
25331;SDS011;13284;52.748;13.452;2022-12-07T11:12:04;2.77;;;2.17;;
25331;SDS011;13284;52.748;13.452;2022-12-07T11:14:53;2.27;;;1.63;;
25331;SDS011;13284;52.748;13.452;2022-12-07T11:17:30;3.10;;;2.73;;
25331;SDS011;13284;52.748;13.452;2022-12-07T11:20:37;4.60;;;2.60;;
25331;SDS011;13284;52.748;13.452;2022-12-07T11:26:02;1.80;;;1.70;;
25331;SDS011;13284;52.748;13.452;2022-12-07T11:29:02;2.30;;;2.10;;
25331;SDS011;13284;52.748;13.452;2022-12-07T11:31:57;3.60;;;1.97;;
25331;SDS011;13284;52.748;13.452;2022-12-07T11:37:11;3.10;;;1.87;;
25331;SDS011;13284;52.748;13.452;2022-12-07T11:39:44;3.33;;;2.47;;
25331;SDS011;13284;52.748;13.452;2022-12-07T11:45:10;2.73;;;2.40;;
25331;SDS011;13284;52.748;13.452;2022-12-07T11:47:47;3.17;;;2.10;;
25331;SDS011;13284;52.748;13.452;2022-12-07T11:55:40;2.53;;;2.27;;
25331;SDS011;13284;52.748;13.452;2022-12-07T11:58:20;2.30;;;2.10;;
25331;SDS011;13284;52.748;13.452;2022-12-07T12:03:52;2.20;;;2.00;;
25331;SDS011;13284;52.748;13.452;2022-12-07T12:06:23;2.53;;;2.30;;
25331;SDS011;13284;52.748;13.452;2022-12-07T12:08:50;2.60;;;2.33;;
25331;SDS011;13284;52.748;13.452;2022-12-07T12:19:22;2.40;;;2.20;;
25331;SDS011;13284;52.748;13.452;2022-12-07T12:21:53;3.73;;;2.23;;
25331;SDS011;13284;52.748;13.452;2022-12-07T12:24:29;3.03;;;2.83;;
25331;SDS011;13284;52.748;13.452;2022-12-07T12:27:05;2.37;;;2.13;;
25331;SDS011;13284;52.748;13.452;2022-12-07T12:29:35;4.33;;;2.63;;
25331;SDS011;13284;52.748;13.452;2022-12-07T12:32:04;2.20;;;2.00;;
25331;SDS011;13284;52.748;13.452;2022-12-07T12:42:50;2.00;;;1.80;;
25331;SDS011;13284;52.748;13.452;2022-12-07T12:45:20;2.27;;;2.03;;
25331;SDS011;13284;52.748;13.452;2022-12-07T12:53:00;3.50;;;2.00;;
25331;SDS011;13284;52.748;13.452;2022-12-07T13:00:47;5.93;;;1.90;;
25331;SDS011;13284;52.748;13.452;2022-12-07T13:03:34;2.77;;;1.80;;
25331;SDS011;13284;52.748;13.452;2022-12-07T13:06:17;2.80;;;2.60;;
25331;SDS011;13284;52.748;13.452;2022-12-07T13:08:44;2.40;;;2.30;;
25331;SDS011;13284;52.748;13.452;2022-12-07T13:11:25;3.27;;;2.50;;
25331;SDS011;13284;52.748;13.452;2022-12-07T13:17:11;5.63;;;2.43;;
25331;SDS011;13284;52.748;13.452;2022-12-07T13:20:02;4.63;;;2.40;;
25331;SDS011;13284;52.748;13.452;2022-12-07T13:28:16;4.50;;;2.50;;
25331;SDS011;13284;52.748;13.452;2022-12-07T13:31:33;3.40;;;1.90;;
25331;SDS011;13284;52.748;13.452;2022-12-07T13:33:43;2.43;;;2.03;;
25331;SDS011;13284;52.748;13.452;2022-12-07T13:36:20;6.03;;;1.97;;
25331;SDS011;13284;52.748;13.452;2022-12-07T13:39:19;2.17;;;1.90;;
25331;SDS011;13284;52.748;13.452;2022-12-07T13:41:51;3.67;;;2.13;;
25331;SDS011;13284;52.748;13.452;2022-12-07T13:44:20;3.73;;;1.93;;
25331;SDS011;13284;52.748;13.452;2022-12-07T13:47:04;4.97;;;2.00;;
25331;SDS011;13284;52.748;13.452;2022-12-07T13:49:38;2.63;;;1.57;;
25331;SDS011;13284;52.748;13.452;2022-12-07T13:52:16;3.43;;;1.53;;
25331;SDS011;13284;52.748;13.452;2022-12-07T13:55:08;2.27;;;1.60;;
25331;SDS011;13284;52.748;13.452;2022-12-07T13:57:40;2.73;;;1.67;;
25331;SDS011;13284;52.748;13.452;2022-12-07T14:00:13;1.53;;;1.37;;
25331;SDS011;13284;52.748;13.452;2022-12-07T14:02:55;2.33;;;1.53;;
25331;SDS011;13284;52.748;13.452;2022-12-07T14:05:28;5.20;;;1.60;;
25331;SDS011;13284;52.748;13.452;2022-12-07T14:07:56;1.53;;;1.43;;
25331;SDS011;13284;52.748;13.452;2022-12-07T14:10:28;1.70;;;1.27;;
25331;SDS011;13284;52.748;13.452;2022-12-07T14:12:58;1.90;;;1.63;;
25331;SDS011;13284;52.748;13.452;2022-12-07T14:15:29;3.17;;;1.60;;
25331;SDS011;13284;52.748;13.452;2022-12-07T14:17:57;4.70;;;2.33;;
25331;SDS011;13284;52.748;13.452;2022-12-07T14:20:38;1.53;;;1.43;;
25331;SDS011;13284;52.748;13.452;2022-12-07T14:23:06;4.40;;;1.70;;
25331;SDS011;13284;52.748;13.452;2022-12-07T14:25:53;2.70;;;1.67;;
25331;SDS011;13284;52.748;13.452;2022-12-07T14:28:32;9.70;;;3.03;;
25331;SDS011;13284;52.748;13.452;2022-12-07T14:30:59;6.57;;;1.50;;
25331;SDS011;13284;52.748;13.452;2022-12-07T14:33:26;1.70;;;1.53;;
25331;SDS011;13284;52.748;13.452;2022-12-07T14:35:52;2.27;;;1.80;;
25331;SDS011;13284;52.748;13.452;2022-12-07T14:38:22;2.60;;;1.67;;
25331;SDS011;13284;52.748;13.452;2022-12-07T14:40:49;2.70;;;1.90;;
25331;SDS011;13284;52.748;13.452;2022-12-07T14:43:16;2.20;;;1.50;;
25331;SDS011;13284;52.748;13.452;2022-12-07T14:45:43;4.03;;;1.53;;
25331;SDS011;13284;52.748;13.452;2022-12-07T14:48:21;3.50;;;1.23;;
25331;SDS011;13284;52.748;13.452;2022-12-07T14:50:50;2.20;;;1.10;;
25331;SDS011;13284;52.748;13.452;2022-12-07T14:53:25;3.97;;;1.67;;
25331;SDS011;13284;52.748;13.452;2022-12-07T14:55:55;3.23;;;1.47;;
25331;SDS011;13284;52.748;13.452;2022-12-07T14:58:20;2.27;;;1.70;;
25331;SDS011;13284;52.748;13.452;2022-12-07T15:00:47;4.70;;;1.40;;
25331;SDS011;13284;52.748;13.452;2022-12-07T15:03:17;4.33;;;1.97;;
25331;SDS011;13284;52.748;13.452;2022-12-07T15:05:44;2.73;;;1.10;;
25331;SDS011;13284;52.748;13.452;2022-12-07T15:08:11;2.20;;;1.50;;
25331;SDS011;13284;52.748;13.452;2022-12-07T15:10:37;2.73;;;1.80;;
25331;SDS011;13284;52.748;13.452;2022-12-07T15:13:06;2.63;;;1.97;;
25331;SDS011;13284;52.748;13.452;2022-12-07T15:15:57;3.57;;;1.23;;
25331;SDS011;13284;52.748;13.452;2022-12-07T15:18:35;4.07;;;1.80;;
25331;SDS011;13284;52.748;13.452;2022-12-07T15:21:01;2.13;;;1.40;;
25331;SDS011;13284;52.748;13.452;2022-12-07T15:23:27;2.10;;;1.20;;
25331;SDS011;13284;52.748;13.452;2022-12-07T15:25:55;2.47;;;1.33;;
25331;SDS011;13284;52.748;13.452;2022-12-07T15:28:21;8.00;;;2.40;;
25331;SDS011;13284;52.748;13.452;2022-12-07T15:30:46;1.13;;;1.03;;
25331;SDS011;13284;52.748;13.452;2022-12-07T15:33:13;2.00;;;1.10;;
25331;SDS011;13284;52.748;13.452;2022-12-07T15:35:44;0.87;;;0.80;;
25331;SDS011;13284;52.748;13.452;2022-12-07T15:38:10;1.77;;;0.93;;
25331;SDS011;13284;52.748;13.452;2022-12-07T15:40:36;2.30;;;0.70;;
25331;SDS011;13284;52.748;13.452;2022-12-07T15:43:02;0.87;;;0.57;;
25331;SDS011;13284;52.748;13.452;2022-12-07T15:45:28;1.07;;;0.57;;
25331;SDS011;13284;52.748;13.452;2022-12-07T15:47:54;0.60;;;0.60;;
25331;SDS011;13284;52.748;13.452;2022-12-07T15:50:20;2.00;;;0.67;;
25331;SDS011;13284;52.748;13.452;2022-12-07T15:52:46;2.40;;;0.40;;
25331;SDS011;13284;52.748;13.452;2022-12-07T15:55:14;1.10;;;0.40;;
25331;SDS011;13284;52.748;13.452;2022-12-07T15:57:39;1.43;;;0.53;;
25331;SDS011;13284;52.748;13.452;2022-12-07T16:00:06;1.23;;;0.83;;
25331;SDS011;13284;52.748;13.452;2022-12-07T16:02:33;3.27;;;0.80;;
25331;SDS011;13284;52.748;13.452;2022-12-07T16:04:59;1.07;;;0.80;;
25331;SDS011;13284;52.748;13.452;2022-12-07T16:07:25;2.60;;;1.40;;
25331;SDS011;13284;52.748;13.452;2022-12-07T16:09:50;1.00;;;1.00;;
25331;SDS011;13284;52.748;13.452;2022-12-07T16:12:16;3.00;;;1.00;;
25331;SDS011;13284;52.748;13.452;2022-12-07T16:14:42;3.30;;;1.03;;
25331;SDS011;13284;52.748;13.452;2022-12-07T16:17:08;3.00;;;1.40;;
25331;SDS011;13284;52.748;13.452;2022-12-07T16:19:34;1.10;;;1.00;;
25331;SDS011;13284;52.748;13.452;2022-12-07T16:22:01;3.60;;;1.13;;
25331;SDS011;13284;52.748;13.452;2022-12-07T16:24:28;1.10;;;0.93;;
25331;SDS011;13284;52.748;13.452;2022-12-07T16:26:53;0.70;;;0.70;;